Shirpur Airport

IN-0062 · Maharashtra, India

Storia di METAR IN-0062 · Shirpur Airport

Di seguito sono riportati i METAR degli ultimi giorni. Seleziona un anno per sfogliare i METAR più vecchi, dall'anno 2007 in poi.

15 luglio 2024

Tempo Codice Tempo meteorologico Temp. Vista Base nuvolosa Vento METAR/SPECI
17:30
I
26 °C 3 km 10.000 ft 250° 250° 5 kt METAR VAAU 151200Z 25005KT 3000 BR SCT020 BKN100 26/24 Q1001 NOSIG
17:00
I
25 °C 4 km 10.000 ft 270° 270° 2 kt METAR VAAU 151130Z 27002KT 4000 BR SCT012 SCT020 SCT025 BKN100 25/24 Q1001 NOSIG
16:30
I
26 °C 2 km 2.500 ft 290° 290° 2 kt METAR VAAU 151100Z 29002KT 2000 DZ SCT012 BKN025 BKN080 26/25 Q1001 NOSIG
16:00
I
26 °C 2 km 2.500 ft 270° 270° 2 kt METAR VAAU 151030Z 27002KT 2000 RA SCT012 BKN025 BKN080 26/25 Q1001 NOSIG
15:30
I
26 °C 2 km 2.500 ft 250° 250° 5 kt METAR VAAU 151000Z 25005KT 2000 DZ SCT012 BKN025 BKN080 26/25 Q1001 NOSIG
14:30
I
26 °C 4 km 2.500 ft 250° 250° 4 kt METAR VAAU 150900Z 25004KT 4000 HZ SCT012 BKN025 BKN100 26/24 Q1002 NOSIG
13:30
M
28 °C 5 km 10.000 ft 270° 270° 3 kt METAR VAAU 150800Z 27003KT 5000 HZ SCT020 SCT025 BKN100 28/25 Q1002 NOSIG
12:34
I
26 °C 2 km 8.000 ft 250° 250° 3 kt METAR VAAU 150704Z 25003KT 2000 DZ FEW012 SCT025 BKN080 26/25 Q1003 NOSIG
11:31
I
25 °C 2 km 8.000 ft 230° 230° 4 kt METAR VAAU 150601Z 23004KT 2000 DZ FEW012 SCT025 BKN080 25/25 Q1004 NOSIG
10:30
I
26 °C 2 km 8.000 ft 290° 290° 2 kt METAR VAAU 150500Z 29002KT 2000 BR FEW012 SCT025 BKN080 26/25 Q1004 NOSIG
09:30
I
25 °C 2 km - 260° 260° 5 kt METAR VAAU 150400Z 26005KT 2000 BR FEW012 SCT025 SCT100 25/24 Q1004 NOSIG
09:00
I
25 °C 2 km - 290° 290° 3 kt METAR VAAU 150330Z 29003KT 2000 BR FEW012 SCT025 SCT100 25/24 Q1004 NOSIG
08:30
I
25 °C 2 km - 270° 270° 3 kt METAR VAAU 150300Z 27003KT 2000 BR FEW012 SCT025 SCT100 25/24 Q1004 NOSIG
08:00
I
24 °C 2 km 10.000 ft 270° 270° 3 kt METAR VAAU 150230Z 27003KT 2000 BR FEW012 SCT020 SCT025 BKN100 24/24 Q1004 NOSIG
07:30
I
24 °C 2 km 10.000 ft 250° 250° 3 kt METAR VAAU 150200Z 25003KT 2000 BR SCT020 SCT025 BKN100 24/24 Q1004 NOSIG
07:00
I
24 °C 2 km 10.000 ft 280° 280° 2 kt METAR VAAU 150130Z 28002KT 2000 BR SCT020 SCT025 BKN100 24/24 Q1003 NOSIG
06:30
I
23 °C 2 km 8.000 ft 260° 260° 3 kt METAR VAAU 150100Z 26003KT 2000 BR SCT012 SCT020 BKN080 23/23 Q1003 TEMPO 1500 BR
06:00
I
23 °C 3 km 8.000 ft 270° 270° 3 kt METAR VAAU 150030Z 27003KT 3000 BR SCT012 SCT020 BKN080 23/23 Q1003 NOSIG
05:30
I
23 °C 3 km 8.000 ft 270° 270° 3 kt METAR VAAU 150000Z 27003KT 3000 BR SCT012 SCT020 BKN080 23/23 Q1003 NOSIG
02:30
I
23 °C 3 km 8.000 ft 250° 250° 3 kt METAR VAAU 142100Z 25003KT 3000 RA SCT012 SCT020 BKN080 23/23 Q1003 NOSIG

14 luglio 2024

Tempo Codice Tempo meteorologico Temp. Vista Base nuvolosa Vento METAR/SPECI
23:30
I
24 °C 3 km 10.000 ft 270° 270° 4 kt METAR VAAU 141800Z 27004KT 3000 DZ SCT012 SCT020 BKN100 24/24 Q1004 NOSIG
21:30
I
26 °C 3 km 10.000 ft 250° 250° 4 kt METAR VAAU 141600Z 25004KT 3000 BR SCT020 SCT025 BKN100 26/24 Q1003 NOSIG
21:00
I
26 °C 3 km 10.000 ft 250° 250° 6 kt METAR VAAU 141530Z 25006KT 3000 BR SCT020 SCT025 BKN100 26/24 Q1003 NOSIG
20:30
I
26 °C 4 km 10.000 ft 250° 250° 5 kt METAR VAAU 141500Z 25005KT 4000 BR SCT020 SCT025 BKN100 26/24 Q1003 NOSIG
20:09
I
26 °C 4 km 10.000 ft 240° 240° 4 kt METAR VAAU 141439Z 24004KT 4000 BR SCT020 SCT025 BKN100 26/25 Q1002 NOSIG
19:30
I
27 °C 4 km 10.000 ft 250° 250° 4 kt METAR VAAU 141400Z 25004KT 4000 BR SCT020 SCT025 BKN100 27/24 Q1002 NOSIG
19:00
I
27 °C 4 km 10.000 ft 260° 260° 5 kt METAR VAAU 141330Z 26005KT 4000 BR SCT020 SCT025 BKN100 27/24 Q1002 NOSIG
18:30
I
27 °C 4 km 10.000 ft 240° 240° 6 kt METAR VAAU 141300Z 24006KT 4000 BR SCT020 SCT025 BKN100 27/24 Q1002 NOSIG
18:00
M
28 °C 5 km 10.000 ft 240° 240° 6 kt METAR VAAU 141230Z 24006KT 5000 HZ SCT020 SCT025 BKN100 28/24 Q1001 NOSIG
17:30
M
28 °C 5 km 10.000 ft 230° 230° 7 kt METAR VAAU 141200Z 23007KT 5000 HZ SCT020 SCT025 BKN100 28/24 Q1001 NOSIG
16:30
M
30 °C 5 km 10.000 ft 280° 280° 2 kt METAR VAAU 141100Z 28002KT 5000 HZ SCT020 SCT025 BKN100 30/24 Q1000 NOSIG
15:30
M
30 °C 5 km 10.000 ft 350° 350° 2 kt METAR VAAU 141000Z 35002KT 5000 HZ SCT020 SCT025 BKN100 30/25 Q1001 NOSIG
15:00
M
30 °C 5 km 10.000 ft 350° 350° 4 kt METAR VAAU 140930Z 35004KT 5000 HZ SCT020 SCT025 BKN100 30/25 Q1001 NOSIG
14:30
M
30 °C 5 km 10.000 ft 320° 320° 4 kt METAR VAAU 140900Z 32004KT 5000 HZ SCT020 SCT025 BKN100 30/25 Q1002 NOSIG
13:30
M
29 °C 5 km 10.000 ft 320° 320° 4 kt METAR VAAU 140800Z 32004KT 5000 HZ SCT020 SCT025 BKN100 29/24 Q1003 NOSIG
12:30
M
30 °C 5 km 2.500 ft 320° 320° 4 kt METAR VAAU 140700Z 32004KT 5000 HZ SCT012 BKN025 BKN100 30/24 Q1003 NOSIG
11:30
M
28 °C 5 km 2.500 ft 250° 250° 2 kt METAR VAAU 140600Z 25002KT 5000 HZ SCT012 BKN025 BKN100 28/24 Q1004 NOSIG
10:30
M
27 °C 5 km 2.500 ft 250° 250° 2 kt METAR VAAU 140500Z 25002KT 5000 HZ SCT012 BKN025 BKN100 27/24 Q1004 NOSIG
09:30
M
26 °C 5 km 10.000 ft 270° 270° 4 kt METAR VAAU 140400Z 27004KT 5000 HZ SCT020 SCT025 BKN100 26/24 Q1005 NOSIG
08:30
M
25 °C 5 km 10.000 ft 270° 270° 4 kt METAR VAAU 140300Z 27004KT 5000 HZ SCT012 SCT025 BKN100 25/23 Q1005 NOSIG
07:30
M
24 °C 5 km 10.000 ft 250° 250° 4 kt METAR VAAU 140200Z 25004KT 5000 HZ SCT012 SCT025 BKN100 24/23 Q1004 NOSIG
06:30
M
24 °C 5 km 10.000 ft 250° 250° 4 kt METAR VAAU 140100Z 25004KT 5000 HZ SCT012 SCT025 BKN100 24/22 Q1004 NOSIG
05:30
I
23 °C 4 km 10.000 ft 250° 250° 4 kt METAR VAAU 140000Z 25004KT 4000 HZ SCT020 SCT025 BKN100 23/22 Q1003 NOSIG
02:46
I
24 °C 4 km 10.000 ft 320° 320° 2 kt METAR VAAU 132116Z 32002KT 4000 HZ SCT020 SCT025 BKN100 24/23 Q1004 NOSIG

13 luglio 2024

Tempo Codice Tempo meteorologico Temp. Vista Base nuvolosa Vento METAR/SPECI
23:34
I
24 °C 4 km 10.000 ft 250° 250° 5 kt METAR VAAU 131804Z 25005KT 4000 HZ SCT020 SCT025 BKN100 24/23 Q1006 NOSIG
22:30
I
25 °C 3 km 10.000 ft 250° 250° 4 kt METAR VAAU 131700Z 25004KT 3000 BR FEW020 SCT025 BKN100 25/22 Q1005 NOSIG
22:00
I
25 °C 3 km 10.000 ft 250° 250° 6 kt METAR VAAU 131630Z 25006KT 3000 BR FEW020 SCT025 BKN100 25/22 Q1005 NOSIG
21:30
I
25 °C 3 km 10.000 ft 260° 260° 4 kt METAR VAAU 131600Z 26004KT 3000 BR FEW020 SCT025 BKN100 25/23 Q1005 NOSIG
21:00
I
25 °C 3 km 10.000 ft 250° 250° 8 kt METAR VAAU 131530Z 25008KT 3000 BR FEW020 SCT025 BKN100 25/23 Q1005 NOSIG
20:30
I
25 °C 3 km 10.000 ft 250° 250° 5 kt METAR VAAU 131500Z 25005KT 3000 BR SCT020 SCT025 BKN100 25/23 Q1004 NOSIG
20:00
I
25 °C 3 km 10.000 ft 260° 260° 5 kt METAR VAAU 131430Z 26005KT 3000 BR SCT020 SCT025 BKN100 25/23 Q1004 NOSIG
19:30
I
24 °C 3 km 10.000 ft 260° 260° 5 kt METAR VAAU 131400Z 26005KT 3000 BR SCT020 SCT025 BKN100 24/24 Q1004 NOSIG
19:01
I
24 °C 3 km 10.000 ft 250° 250° 8 kt METAR VAAU 131331Z 25008KT 3000 BR SCT020 SCT025 BKN100 24/24 Q1004 NOSIG
18:30
I
26 °C 3 km 10.000 ft 260° 260° 5 kt METAR VAAU 131300Z 26005KT 3000 DZ SCT025 SCT025 BKN100 26/24 Q1004 NOSIG
18:00
I
26 °C 4 km 10.000 ft 290° 290° 2 kt METAR VAAU 131230Z 29002KT 4000 HZ SCT025 SCT025 BKN100 26/24 Q1003 NOSIG
17:31
I
26 °C 4 km 10.000 ft 290° 290° 2 kt METAR VAAU 131201Z 29002KT 4000 HZ SCT025 SCT025 BKN100 26/24 Q1003 NOSIG
16:00
I
28 °C 4 km 10.000 ft 280° 280° 4 kt METAR VAAU 131030Z 28004KT 4000 HZ FEW012 SCT020 SCT025 BKN100 28/23 Q1003 NOSIG
15:30
I
26 °C 4 km 2.500 ft 250° 250° 6 kt METAR VAAU 131000Z 25006KT 4000 HZ SCT012 SCT020 BKN025 BKN100 26/25 Q1004 NOSIG
15:00
I
26 °C 4 km 2.500 ft 250° 250° 4 kt METAR VAAU 130930Z 25004KT 4000 HZ SCT012 SCT020 BKN025 BKN100 26/25 Q1004 NOSIG
14:30
I
26 °C 4 km 2.500 ft 290° 290° 3 kt METAR VAAU 130900Z 29003KT 4000 HZ SCT012 SCT020 BKN025 BKN100 26/25 Q1004 NOSIG
13:30
M
29 °C 5,5 km 2.500 ft 230° 230° 8 kt METAR VAAU 130800Z 23008KT 5500 SCT012 SCT020 BKN025 BKN100 29/24 Q1005 NOSIG
12:30
I
29 °C 4,5 km 10.000 ft 250° 250° 9 kt METAR VAAU 130700Z 25009KT 4500 HZ SCT020 SCT025 BKN100 29/24 Q1005 NOSIG
12:00
I
28 °C 4 km 10.000 ft 230° 230° 8 kt METAR VAAU 130630Z 23008KT 4000 HZ SCT012 SCT020 BKN100 28/24 Q1006 NOSIG
11:30
I
28 °C 4 km 10.000 ft 230° 230° 5 kt METAR VAAU 130600Z 23005KT 4000 HZ SCT012 SCT020 BKN100 28/24 Q1006 NOSIG
Segnala modifiche